createdAt,value
2022-12-13T00:01:24.692Z,57.25
2022-12-13T00:03:59.562Z,66.38
2022-12-13T00:06:26.998Z,52.17
2022-12-13T00:08:54.285Z,60.55
2022-12-13T00:11:21.409Z,59.67
2022-12-13T00:13:48.558Z,60.38
2022-12-13T00:16:22.521Z,58.90
2022-12-13T00:18:51.349Z,60.72
2022-12-13T00:21:20.458Z,63.58
2022-12-13T00:23:47.891Z,62.92
2022-12-13T00:26:18.653Z,70.63
2022-12-13T00:28:49.029Z,60.58
2022-12-13T00:31:53.332Z,55.30
2022-12-13T00:34:07.106Z,54.08
2022-12-13T00:36:33.984Z,53.85
2022-12-13T00:39:00.889Z,58.55
2022-12-13T00:41:34.667Z,56.35
2022-12-13T00:44:02.832Z,57.35
2022-12-13T00:46:30.588Z,55.55
2022-12-13T00:49:00.590Z,57.97
2022-12-13T00:51:30.599Z,58.85
2022-12-13T00:53:58.546Z,51.72
2022-12-13T00:56:33.825Z,55.66
2022-12-13T01:00:34.641Z,62.05
2022-12-13T01:03:20.172Z,60.42
2022-12-13T01:06:14.230Z,60.00
2022-12-13T01:08:34.831Z,56.72
2022-12-13T01:11:01.697Z,52.42
2022-12-13T01:13:28.537Z,52.25
2022-12-13T01:15:55.309Z,55.25
2022-12-13T01:18:22.068Z,57.58
2022-12-13T01:21:07.826Z,61.63
2022-12-13T01:23:34.786Z,52.75
2022-12-13T01:26:06.640Z,54.17
2022-12-13T01:28:33.942Z,55.75
2022-12-13T01:31:04.916Z,55.35
2022-12-13T01:33:32.765Z,55.67
2022-12-13T01:36:06.239Z,54.72
2022-12-13T01:38:37.931Z,57.28
2022-12-13T01:41:08.913Z,53.15
2022-12-13T01:43:44.749Z,52.13
2022-12-13T01:46:14.148Z,55.35
2022-12-13T01:48:49.590Z,55.88
2022-12-13T01:51:19.566Z,54.15
2022-12-13T01:53:48.916Z,54.03
2022-12-13T01:56:28.361Z,57.15
2022-12-13T01:58:56.716Z,58.80
2022-12-13T02:01:24.564Z,59.63
2022-12-13T02:03:51.350Z,65.90
2022-12-13T02:06:27.453Z,52.65
2022-12-13T02:08:54.557Z,57.53
2022-12-13T02:11:21.915Z,60.38
2022-12-13T02:13:48.744Z,49.33
2022-12-13T02:16:42.813Z,53.47
2022-12-13T02:20:02.565Z,54.25
2022-12-13T02:23:11.261Z,57.20
2022-12-13T02:26:19.396Z,59.22
2022-12-13T02:29:13.149Z,48.72
2022-12-13T02:32:29.716Z,49.25
2022-12-13T02:35:11.265Z,58.35
2022-12-13T02:37:49.935Z,48.00
2022-12-13T02:40:28.231Z,54.67
2022-12-13T02:43:11.892Z,52.92
2022-12-13T02:45:45.910Z,51.35
2022-12-13T02:48:17.104Z,51.38
2022-12-13T02:50:46.402Z,53.63
2022-12-13T02:53:14.206Z,54.78
2022-12-13T02:55:41.156Z,51.90
2022-12-13T02:58:12.324Z,52.58
2022-12-13T03:01:28.939Z,55.67
2022-12-13T03:04:26.116Z,54.33
2022-12-13T03:07:12.169Z,54.35
2022-12-13T03:10:02.748Z,59.88
2022-12-13T03:13:09.821Z,53.92
2022-12-13T03:15:49.810Z,49.47
2022-12-13T03:18:21.528Z,50.42
2022-12-13T03:20:52.622Z,51.90
2022-12-13T03:23:21.354Z,49.05
2022-12-13T03:25:55.744Z,57.47
2022-12-13T03:28:23.779Z,50.15
2022-12-13T03:30:50.622Z,52.88
2022-12-13T03:33:17.622Z,51.42
2022-12-13T03:35:45.737Z,58.30
2022-12-13T03:38:22.414Z,52.30
2022-12-13T03:40:53.531Z,55.38
2022-12-13T03:43:21.813Z,54.17
2022-12-13T03:45:52.942Z,50.58
2022-12-13T03:48:21.693Z,52.63
2022-12-13T03:50:51.139Z,57.65
2022-12-13T03:53:22.735Z,54.90
2022-12-13T03:56:01.868Z,52.08
2022-12-13T03:58:35.626Z,53.22
2022-12-13T04:01:14.527Z,51.25
2022-12-13T04:03:44.095Z,53.78
2022-12-13T04:06:11.977Z,59.30
2022-12-13T04:08:39.832Z,50.60
2022-12-13T04:11:26.243Z,55.83
2022-12-13T04:13:54.459Z,52.80
2022-12-13T04:16:22.778Z,52.75
2022-12-13T04:18:49.635Z,57.70
2022-12-13T04:21:16.444Z,53.85
2022-12-13T04:23:43.255Z,48.45
2022-12-13T04:26:10.294Z,49.20
2022-12-13T04:28:37.089Z,51.67
2022-12-13T04:31:04.394Z,49.60
2022-12-13T04:33:32.665Z,54.30
2022-12-13T04:35:59.773Z,48.33
2022-12-13T04:38:26.625Z,57.50
2022-12-13T04:40:53.412Z,58.08
2022-12-13T04:43:20.212Z,49.92
2022-12-13T04:45:47.053Z,50.08
2022-12-13T04:48:13.922Z,53.50
2022-12-13T04:51:01.134Z,55.03
2022-12-13T04:53:30.076Z,54.78
2022-12-13T04:55:57.024Z,49.60
2022-12-13T04:58:23.820Z,53.08
2022-12-13T05:00:50.606Z,52.00
2022-12-13T05:03:17.435Z,47.92
2022-12-13T05:05:44.273Z,55.42
2022-12-13T05:08:11.155Z,54.08
2022-12-13T05:10:38.259Z,49.22
2022-12-13T05:13:06.131Z,51.92
2022-12-13T05:15:33.902Z,46.83
2022-12-13T05:18:09.511Z,47.83
2022-12-13T05:20:37.681Z,44.65
2022-12-13T05:23:04.457Z,51.03
2022-12-13T05:25:31.217Z,57.58
2022-12-13T05:27:58.008Z,49.63
2022-12-13T05:30:24.792Z,46.55
2022-12-13T05:32:51.605Z,48.40
2022-12-13T05:35:22.646Z,48.28
2022-12-13T05:37:54.315Z,43.50
2022-12-13T05:40:23.579Z,50.63
2022-12-13T05:42:50.478Z,52.83
2022-12-13T05:45:20.752Z,49.88
2022-12-13T05:47:48.346Z,44.13
2022-12-13T05:57:18.532Z,47.42
2022-12-13T05:59:45.403Z,43.72
2022-12-13T06:02:16.773Z,47.72
2022-12-13T06:04:46.629Z,47.53
2022-12-13T06:07:14.172Z,50.55
2022-12-13T06:09:40.984Z,54.85
2022-12-13T06:12:31.236Z,51.33
2022-12-13T06:14:54.596Z,52.33
2022-12-13T06:17:36.645Z,48.05
2022-12-13T06:20:23.810Z,42.22
2022-12-13T06:22:52.783Z,46.30
2022-12-13T06:25:30.694Z,61.47
2022-12-13T06:28:01.078Z,46.08
2022-12-13T06:30:29.591Z,50.78
2022-12-13T06:32:57.078Z,48.15
2022-12-13T06:35:28.989Z,49.55
2022-12-13T06:38:01.385Z,39.60
2022-12-13T06:40:33.657Z,44.92
2022-12-13T06:43:00.786Z,43.40
2022-12-13T06:45:27.563Z,47.55
2022-12-13T06:47:55.230Z,46.80
2022-12-13T06:50:21.993Z,52.88
2022-12-13T06:52:48.879Z,51.58
2022-12-13T06:55:23.659Z,42.05
2022-12-13T06:57:51.593Z,47.42
2022-12-13T07:00:22.166Z,51.83
2022-12-13T07:02:55.940Z,42.92
2022-12-13T07:05:23.405Z,45.58
2022-12-13T07:07:50.289Z,43.90
2022-12-13T07:10:22.723Z,44.55
2022-12-13T07:12:50.286Z,44.83
2022-12-13T07:15:19.973Z,44.85
2022-12-13T07:17:50.704Z,42.63
2022-12-13T07:20:19.105Z,44.80
2022-12-13T07:22:49.283Z,45.28
2022-12-13T07:25:28.516Z,47.00
2022-12-13T07:28:03.245Z,43.28
2022-12-13T07:30:33.211Z,45.40
2022-12-13T07:33:02.744Z,42.50
2022-12-13T07:35:30.150Z,46.75
2022-12-13T07:37:57.002Z,47.97
2022-12-13T07:40:23.912Z,49.33
2022-12-13T07:42:55.340Z,46.38
2022-12-13T07:45:23.955Z,41.97
2022-12-13T07:47:51.083Z,44.15
2022-12-13T07:50:24.620Z,45.67
2022-12-13T07:52:53.324Z,43.47
2022-12-13T07:55:23.029Z,44.47
2022-12-13T07:58:13.244Z,45.35
2022-12-13T08:00:45.985Z,38.22
2022-12-13T08:03:25.236Z,39.80
2022-12-13T08:06:08.680Z,46.17
2022-12-13T08:08:35.776Z,52.75
2022-12-13T08:11:08.626Z,45.40
2022-12-13T08:13:36.184Z,38.03
2022-12-13T08:16:28.025Z,41.83
2022-12-13T08:18:53.760Z,41.15
2022-12-13T08:24:20.662Z,53.00
2022-12-13T08:26:47.624Z,56.75
2022-12-13T08:29:23.207Z,56.22
2022-12-13T08:32:05.260Z,48.17
2022-12-13T08:34:32.120Z,53.22
2022-12-13T08:37:02.126Z,47.58
2022-12-13T08:39:36.927Z,43.53
2022-12-13T08:42:19.558Z,49.35
2022-12-13T08:44:49.839Z,63.43
2022-12-13T08:47:23.152Z,51.63
2022-12-13T08:50:02.217Z,45.47
2022-12-13T08:52:40.649Z,45.60
2022-12-13T08:55:13.711Z,45.90
2022-12-13T08:57:42.844Z,44.78
2022-12-13T09:00:17.543Z,51.42
2022-12-13T09:02:44.493Z,47.85
2022-12-13T09:05:12.829Z,45.42
2022-12-13T09:07:40.942Z,44.33
2022-12-13T09:10:26.636Z,47.60
2022-12-13T09:13:01.640Z,49.20
2022-12-13T09:15:34.270Z,53.92
2022-12-13T09:18:05.036Z,47.70
2022-12-13T09:20:40.886Z,52.50
2022-12-13T09:23:14.019Z,45.47
2022-12-13T09:26:05.220Z,52.67
2022-12-13T09:28:35.100Z,41.65
2022-12-13T09:31:16.179Z,44.97
2022-12-13T09:33:44.419Z,47.83
2022-12-13T09:36:15.771Z,46.75
2022-12-13T09:38:42.729Z,48.53
2022-12-13T09:41:28.913Z,42.88
2022-12-13T09:44:31.617Z,44.15
2022-12-13T09:47:13.344Z,42.05
2022-12-13T09:49:44.297Z,41.58
2022-12-13T09:52:22.445Z,49.85
2022-12-13T09:54:55.971Z,48.47
2022-12-13T09:57:34.163Z,43.33
2022-12-13T10:00:23.792Z,45.55
2022-12-13T10:02:57.853Z,53.13
2022-12-13T10:05:39.396Z,44.65
2022-12-13T10:08:23.249Z,43.72
2022-12-13T10:10:52.971Z,28.58
2022-12-13T10:13:41.844Z,47.47
2022-12-13T10:16:23.481Z,39.70
2022-12-13T10:18:51.331Z,39.08
2022-12-13T10:21:26.654Z,43.65
2022-12-13T10:24:23.662Z,44.38
2022-12-13T10:26:40.457Z,43.45
2022-12-13T10:29:08.320Z,36.42
2022-12-13T10:31:52.748Z,38.10
2022-12-13T10:34:30.734Z,37.72
2022-12-13T10:36:59.609Z,37.63
2022-12-13T10:39:42.526Z,39.63
2022-12-13T10:42:22.898Z,38.50
2022-12-13T10:45:15.099Z,39.63
2022-12-13T10:47:45.987Z,37.65
2022-12-13T10:50:27.910Z,42.97
2022-12-13T10:52:56.770Z,37.25
2022-12-13T10:55:35.061Z,42.95
2022-12-13T10:58:12.058Z,43.08
2022-12-13T11:00:47.355Z,32.10
2022-12-13T11:03:32.857Z,39.08
2022-12-13T11:06:18.051Z,40.55
2022-12-13T11:08:44.851Z,35.17
2022-12-13T11:11:12.423Z,40.95
2022-12-13T11:13:53.603Z,39.22
2022-12-13T11:16:40.923Z,41.10
2022-12-13T11:19:23.337Z,37.88
2022-12-13T11:21:54.295Z,38.85
2022-12-13T11:24:25.015Z,36.95
2022-12-13T11:27:03.400Z,41.55
2022-12-13T11:30:01.063Z,40.90
2022-12-13T11:32:39.794Z,44.85
2022-12-13T11:35:21.278Z,34.50
2022-12-13T11:38:42.253Z,40.50
2022-12-13T11:41:32.597Z,36.97
2022-12-13T11:44:11.715Z,38.67
2022-12-13T11:46:55.536Z,36.60
2022-12-13T11:49:42.240Z,34.65
2022-12-13T11:52:29.960Z,39.50
2022-12-13T11:55:00.029Z,38.83
2022-12-13T11:57:51.125Z,38.40
2022-12-13T12:00:35.491Z,36.33
2022-12-13T12:03:35.333Z,36.17
2022-12-13T12:06:09.276Z,36.47
2022-12-13T12:11:43.880Z,34.78
2022-12-13T12:14:43.777Z,38.10
2022-12-13T12:17:16.286Z,37.20
2022-12-13T12:19:46.749Z,40.80
2022-12-13T12:22:48.121Z,40.22
2022-12-13T12:25:20.527Z,40.30
2022-12-13T12:28:10.510Z,44.42
2022-12-13T12:31:02.073Z,41.15
2022-12-13T12:34:05.404Z,45.75
2022-12-13T12:37:14.638Z,39.22
2022-12-13T12:40:15.209Z,42.00
2022-12-13T12:43:15.458Z,37.08
2022-12-13T12:46:22.853Z,39.22
2022-12-13T12:49:34.204Z,39.38
2022-12-13T12:52:30.687Z,35.30
2022-12-13T12:55:18.496Z,39.30
2022-12-13T12:58:01.318Z,42.08
2022-12-13T13:00:39.321Z,37.30
2022-12-13T13:03:25.223Z,39.08
2022-12-13T13:06:06.078Z,37.05
2022-12-13T13:09:01.464Z,36.92
2022-12-13T13:11:34.585Z,39.47
2022-12-13T13:14:31.639Z,40.80
2022-12-13T13:17:00.668Z,39.13
2022-12-13T13:19:33.459Z,42.47
2022-12-13T13:22:01.501Z,43.83
2022-12-13T13:24:31.611Z,45.30
2022-12-13T13:27:19.520Z,41.95
2022-12-13T13:29:46.379Z,40.38
2022-12-13T13:32:28.480Z,52.40
2022-12-13T13:35:28.563Z,37.63
2022-12-13T13:37:55.990Z,36.72
2022-12-13T13:40:35.765Z,37.30
2022-12-13T13:43:05.626Z,41.13
2022-12-13T13:45:51.448Z,41.78
2022-12-13T13:48:59.549Z,41.60
2022-12-13T13:52:27.370Z,40.35
2022-12-13T13:55:48.641Z,39.22
2022-12-13T13:58:50.919Z,34.65
2022-12-13T14:02:09.300Z,49.90
2022-12-13T14:05:18.390Z,41.97
2022-12-13T14:08:28.990Z,42.20
2022-12-13T14:11:19.904Z,39.78
2022-12-13T14:14:41.931Z,36.00
2022-12-13T14:18:00.750Z,37.75
2022-12-13T14:21:02.125Z,36.88
2022-12-13T14:24:05.817Z,34.60
2022-12-13T14:26:59.118Z,33.97
2022-12-13T14:29:38.649Z,35.45
2022-12-13T14:32:26.667Z,37.95
2022-12-13T14:34:58.517Z,35.30
2022-12-13T14:37:34.552Z,38.55
2022-12-13T14:40:12.137Z,38.00
2022-12-13T14:42:38.959Z,35.47
2022-12-13T14:45:28.440Z,37.33
2022-12-13T14:48:01.352Z,36.63
2022-12-13T14:50:32.390Z,35.75
2022-12-13T14:53:03.021Z,36.50
2022-12-13T14:55:36.521Z,44.97
2022-12-13T14:58:18.074Z,42.00
2022-12-13T15:00:45.997Z,37.05
2022-12-13T15:03:24.910Z,45.22
2022-12-13T15:05:58.962Z,42.10
2022-12-13T15:08:27.367Z,33.83
2022-12-13T15:10:59.722Z,42.70
2022-12-13T15:13:41.639Z,38.83
2022-12-13T15:16:25.524Z,37.67
2022-12-13T15:19:30.931Z,37.17
2022-12-13T15:22:07.525Z,46.45
2022-12-13T15:24:39.093Z,43.97
2022-12-13T15:27:07.989Z,41.33
2022-12-13T15:29:37.050Z,39.00
2022-12-13T15:32:04.245Z,40.80
2022-12-13T15:34:36.904Z,41.67
2022-12-13T15:37:28.381Z,44.97
2022-12-13T15:40:02.418Z,44.20
2022-12-13T15:42:46.692Z,46.45
2022-12-13T15:45:24.520Z,54.30
2022-12-13T15:47:53.016Z,48.97
2022-12-13T15:50:43.680Z,50.80
2022-12-13T15:53:28.597Z,49.00
2022-12-13T15:55:55.794Z,48.08
2022-12-13T15:58:27.149Z,59.58
2022-12-13T16:00:54.387Z,59.20
2022-12-13T16:03:25.081Z,53.22
2022-12-13T16:05:56.929Z,55.60
2022-12-13T16:08:36.926Z,54.90
2022-12-13T16:11:05.143Z,59.40
2022-12-13T16:13:37.831Z,60.20
2022-12-13T16:16:29.953Z,62.38
2022-12-13T16:19:00.705Z,67.28
2022-12-13T16:21:29.903Z,63.58
2022-12-13T16:23:56.661Z,53.47
2022-12-13T16:26:27.522Z,56.72
2022-12-13T16:28:57.731Z,54.67
2022-12-13T16:31:36.415Z,60.92
2022-12-13T16:34:05.205Z,47.13
2022-12-13T16:36:32.660Z,49.33
2022-12-13T16:38:59.483Z,44.30
2022-12-13T16:41:26.266Z,46.42
2022-12-13T16:43:56.783Z,50.38
2022-12-13T16:47:16.835Z,48.47
2022-12-13T16:49:29.952Z,45.15
2022-12-13T16:51:57.189Z,45.30
2022-12-13T16:54:25.506Z,48.65
2022-12-13T16:56:54.019Z,43.05
2022-12-13T16:59:25.553Z,49.13
2022-12-13T17:01:52.982Z,48.60
2022-12-13T17:04:24.457Z,44.90
2022-12-13T17:06:54.739Z,51.38
2022-12-13T17:09:22.552Z,45.47
2022-12-13T17:11:49.335Z,49.35
2022-12-13T17:14:16.117Z,53.28
2022-12-13T17:16:43.005Z,42.28
2022-12-13T17:19:11.938Z,51.53
2022-12-13T17:21:38.722Z,43.60
2022-12-13T17:24:05.905Z,43.88
2022-12-13T17:26:32.722Z,39.92
2022-12-13T17:28:59.530Z,42.75
2022-12-13T17:31:29.238Z,42.72
2022-12-13T17:34:02.680Z,43.63
2022-12-13T17:36:31.247Z,36.58
2022-12-13T17:38:58.028Z,44.08
2022-12-13T17:41:25.129Z,48.17
2022-12-13T17:43:51.903Z,49.92
2022-12-13T17:46:19.332Z,45.58
2022-12-13T17:48:46.610Z,48.75
2022-12-13T17:51:14.405Z,40.90
2022-12-13T17:53:43.577Z,45.67
2022-12-13T17:56:14.989Z,51.05
2022-12-13T17:58:42.516Z,47.30
2022-12-13T18:01:23.561Z,48.00
2022-12-13T18:03:54.033Z,43.28
2022-12-13T18:06:20.901Z,44.28
2022-12-13T18:08:48.335Z,44.03
2022-12-13T18:11:34.466Z,43.95
2022-12-13T18:14:04.956Z,42.47
2022-12-13T18:16:36.971Z,45.45
2022-12-13T18:19:11.620Z,50.60
2022-12-13T18:24:07.030Z,44.10
2022-12-13T18:26:34.530Z,44.95
2022-12-13T18:29:01.874Z,44.75
2022-12-13T18:31:28.739Z,45.70
2022-12-13T18:33:56.037Z,50.40
2022-12-13T18:36:25.168Z,54.38
2022-12-13T18:38:52.691Z,45.28
2022-12-13T18:41:23.240Z,51.70
2022-12-13T18:43:59.280Z,50.15
2022-12-13T18:46:27.515Z,46.90
2022-12-13T18:48:54.329Z,58.50
2022-12-13T18:51:21.318Z,49.42
2022-12-13T18:53:48.112Z,56.92
2022-12-13T18:56:19.048Z,53.13
2022-12-13T18:58:47.937Z,54.35
2022-12-13T19:01:16.448Z,66.97
2022-12-13T19:03:47.896Z,67.63
2022-12-13T19:06:22.250Z,81.32
2022-12-13T19:08:52.451Z,72.65
2022-12-13T19:11:20.287Z,79.00
2022-12-13T19:13:48.340Z,73.78
2022-12-13T19:16:19.922Z,83.78
2022-12-13T19:18:46.941Z,68.47
2022-12-13T19:21:17.244Z,58.47
2022-12-13T19:23:47.326Z,61.30
2022-12-13T19:26:16.769Z,59.67
2022-12-13T19:28:44.445Z,55.00
2022-12-13T19:31:15.706Z,51.55
2022-12-13T19:33:43.655Z,47.45
2022-12-13T19:36:11.364Z,49.00
2022-12-13T19:38:39.739Z,48.38
2022-12-13T19:41:10.901Z,50.72
2022-12-13T19:43:37.814Z,52.95
2022-12-13T19:46:05.281Z,46.90
2022-12-13T19:48:32.477Z,49.45
2022-12-13T19:51:03.827Z,51.95
2022-12-13T19:53:31.159Z,43.80
2022-12-13T19:55:58.635Z,50.65
2022-12-13T19:58:26.496Z,54.05
2022-12-13T20:01:00.908Z,47.70
2022-12-13T20:03:28.168Z,47.83
2022-12-13T20:05:59.879Z,55.63
2022-12-13T20:08:26.725Z,47.55
2022-12-13T20:10:59.855Z,48.10
2022-12-13T20:13:27.122Z,52.20
2022-12-13T20:15:54.819Z,47.47
2022-12-13T20:18:21.777Z,46.38
2022-12-13T20:21:10.369Z,44.50
2022-12-13T20:23:37.163Z,49.33
2022-12-13T20:26:08.557Z,45.90
2022-12-13T20:28:35.323Z,43.08
2022-12-13T20:31:20.601Z,50.80
2022-12-13T20:33:48.036Z,51.05
2022-12-13T20:36:26.960Z,49.65
2022-12-13T20:38:56.515Z,47.53
2022-12-13T20:41:25.813Z,40.03
2022-12-13T20:43:58.198Z,49.97
2022-12-13T20:46:27.194Z,53.97
2022-12-13T20:48:57.415Z,47.85
2022-12-13T20:51:27.364Z,48.65
2022-12-13T20:53:55.314Z,42.85
2022-12-13T20:56:25.733Z,48.30
2022-12-13T20:58:52.701Z,51.42
2022-12-13T21:01:25.307Z,48.70
2022-12-13T21:03:58.325Z,43.55
2022-12-13T21:06:25.072Z,41.65
2022-12-13T21:08:51.899Z,52.00
2022-12-13T21:11:28.744Z,49.63
2022-12-13T21:14:11.210Z,48.55
2022-12-13T21:16:45.776Z,49.25
2022-12-13T21:19:25.167Z,45.08
2022-12-13T21:21:53.766Z,49.88
2022-12-13T21:24:23.040Z,49.45
2022-12-13T21:26:51.141Z,45.92
2022-12-13T21:29:18.674Z,46.35
2022-12-13T21:31:49.777Z,55.58
2022-12-13T21:34:17.620Z,45.95
2022-12-13T21:36:46.981Z,46.13
2022-12-13T21:39:17.058Z,47.33
2022-12-13T21:41:44.658Z,49.85
2022-12-13T21:44:14.312Z,51.38
2022-12-13T21:47:10.675Z,45.17
2022-12-13T21:49:28.889Z,46.35
2022-12-13T21:51:55.886Z,48.92
2022-12-13T21:54:22.727Z,47.72
2022-12-13T21:57:08.355Z,43.85
2022-12-13T21:59:35.180Z,48.28
2022-12-13T22:02:11.635Z,46.83
2022-12-13T22:04:52.769Z,45.08
2022-12-13T22:07:26.629Z,46.85
2022-12-13T22:09:55.125Z,51.35
2022-12-13T22:12:30.195Z,44.17
2022-12-13T22:14:57.026Z,49.50
2022-12-13T22:17:33.035Z,45.08
2022-12-13T22:20:02.586Z,46.63
2022-12-13T22:22:29.501Z,48.95
2022-12-13T22:24:56.327Z,43.13
2022-12-13T22:27:24.362Z,44.05
2022-12-13T22:29:59.578Z,45.20
2022-12-13T22:32:30.239Z,48.42
2022-12-13T22:34:56.997Z,51.17
2022-12-13T22:37:24.715Z,47.15
2022-12-13T22:39:51.513Z,54.45
2022-12-13T22:42:18.279Z,46.97
2022-12-13T22:44:45.038Z,53.25
2022-12-13T22:47:11.872Z,54.05
2022-12-13T22:49:38.818Z,49.80
2022-12-13T22:52:05.819Z,57.42
2022-12-13T22:54:32.616Z,45.83
2022-12-13T22:56:59.370Z,57.55
2022-12-13T22:59:26.129Z,61.90
2022-12-13T23:02:01.353Z,55.75
2022-12-13T23:04:29.111Z,52.80
2022-12-13T23:06:55.909Z,54.50
2022-12-13T23:09:22.908Z,47.72
2022-12-13T23:12:08.113Z,53.97
2022-12-13T23:14:34.925Z,59.78
2022-12-13T23:17:03.068Z,48.97
2022-12-13T23:19:41.541Z,48.90
2022-12-13T23:22:15.965Z,43.72
2022-12-13T23:24:42.896Z,41.63
2022-12-13T23:27:09.725Z,51.33
2022-12-13T23:29:36.660Z,52.55
2022-12-13T23:32:03.729Z,51.08
2022-12-13T23:34:31.282Z,48.97
2022-12-13T23:36:58.066Z,51.45
2022-12-13T23:39:24.843Z,53.22
2022-12-13T23:41:51.929Z,47.10
2022-12-13T23:44:18.708Z,48.95
2022-12-13T23:46:48.255Z,43.70
2022-12-13T23:49:16.439Z,49.25
2022-12-13T23:51:43.294Z,49.55
2022-12-13T23:54:16.124Z,45.83
2022-12-13T23:56:43.069Z,46.55
2022-12-13T23:59:10.081Z,45.63
